Time;durP1;ratioP1;P1;durP2;ratioP2;P2;SDS_P1;SDS_P2;PMS_P1;PMS_P2;Temp;Humidity;BMP_temperature;BMP_pressure;BME280_temperature;BME280_humidity;BME280_pressure;Samples;Min_cycle;Max_cycle;Signal;HPM_P1;HPM_P2
2023/10/07 00:02:59;;;;;;;6.10;2.60;;;;;;;18.19;42.74;102414.45;110669;1263;23021;-65
2023/10/07 00:05:38;;;;;;;5.60;2.40;;;;;;;18.16;42.87;102412.96;110638;1264;22374;-67
2023/10/07 00:08:12;;;;;;;8.30;2.20;;;;;;;18.09;42.94;102410.35;110694;1251;22204;-64
2023/10/07 00:10:40;;;;;;;5.00;2.40;;;;;;;18.10;42.91;102412.80;110649;1260;23154;-62
2023/10/07 00:13:10;;;;;;;7.90;2.80;;;;;;;18.08;42.94;102416.19;110507;1267;22292;-65
2023/10/07 00:15:37;;;;;;;3.40;2.40;;;;;;;18.05;42.89;102416.27;110619;1257;22275;-65
2023/10/07 00:18:11;;;;;;;3.80;2.30;;;;;;;18.00;43.03;102421.84;110361;1258;22987;-62
2023/10/07 00:20:47;;;;;;;4.70;2.50;;;;;;;17.92;43.49;102424.31;110524;1260;23117;-62
2023/10/07 00:23:22;;;;;;;3.80;2.40;;;;;;;17.84;43.69;102421.70;110610;1261;23184;-64
2023/10/07 00:25:50;;;;;;;4.40;2.30;;;;;;;17.80;43.76;102420.55;109875;1254;1002177;-63
2023/10/07 00:28:32;;;;;;;5.40;2.80;;;;;;;17.80;43.59;102417.42;110408;1260;22107;-65
2023/10/07 00:31:03;;;;;;;3.80;2.00;;;;;;;17.78;43.53;102416.08;110588;1257;22288;-61
2023/10/07 00:33:42;;;;;;;3.50;2.20;;;;;;;17.77;43.27;102412.76;110649;1254;23113;-68
2023/10/07 00:36:15;;;;;;;3.50;2.00;;;;;;;17.76;42.82;102412.26;110632;1263;22327;-66
2023/10/07 00:38:43;;;;;;;4.50;2.00;;;;;;;17.74;42.83;102411.26;110399;1259;23023;-67
2023/10/07 00:41:15;;;;;;;3.10;2.10;;;;;;;17.71;42.67;102403.08;110669;1254;22272;-61
2023/10/07 00:43:42;;;;;;;4.50;2.10;;;;;;;17.69;42.41;102402.60;110619;1256;22285;-65
2023/10/07 00:48:52;;;;;;;4.60;2.20;;;;;;;17.63;41.94;102401.02;109891;1263;1002166;-64
2023/10/07 00:51:34;;;;;;;3.20;1.90;;;;;;;17.58;41.80;102397.62;110637;1260;22276;-62
2023/10/07 00:54:16;;;;;;;;;;;;;;;17.55;41.55;102391.04;110591;1256;22413;-64
2023/10/07 00:56:43;;;;;;;;;;;;;;;17.50;41.23;102390.64;110669;1257;22409;-63
2023/10/07 00:59:10;;;;;;;4.30;2.00;;;;;;;17.45;41.16;102393.71;110609;1255;22281;-62
2023/10/07 01:01:37;;;;;;;4.70;2.00;;;;;;;17.39;41.37;102394.56;110585;1253;22882;-66
2023/10/07 01:04:06;;;;;;;3.60;2.30;;;;;;;17.36;41.35;102392.88;110684;1258;22390;-61
2023/10/07 01:06:38;;;;;;;4.20;2.30;;;;;;;17.31;41.23;102386.33;110608;1256;22260;-68
2023/10/07 01:09:11;;;;;;;;;;;;;;;17.27;41.13;102385.20;110424;1264;23190;-61
2023/10/07 01:11:40;;;;;;;5.70;2.30;;;;;;;17.22;41.26;102388.48;110606;1254;22099;-63
2023/10/07 01:14:10;;;;;;;5.40;2.90;;;;;;;17.17;41.50;102384.55;110673;1253;23028;-65
2023/10/07 01:16:43;;;;;;;8.60;2.00;;;;;;;17.15;41.53;102383.73;110654;1255;22598;-65
2023/10/07 01:22:09;;;;;;;3.00;2.30;;;;;;;17.10;41.73;102376.66;110645;1264;22123;-66
2023/10/07 01:27:18;;;;;;;3.30;2.10;;;;;;;17.05;41.78;102371.86;110647;1256;22272;-61
2023/10/07 01:29:48;;;;;;;5.00;2.00;;;;;;;17.02;41.94;102372.10;110638;1254;22321;-63
2023/10/07 01:32:16;;;;;;;7.40;2.60;;;;;;;16.98;42.05;102372.55;110376;1274;22157;-63
2023/10/07 01:34:52;;;;;;;4.40;2.00;;;;;;;16.94;42.11;102374.39;110447;1259;22772;-60
2023/10/07 01:37:22;;;;;;;5.40;2.10;;;;;;;16.92;42.24;102376.00;109737;1254;1002265;-61
2023/10/07 01:39:49;;;;;;;5.40;2.40;;;;;;;16.90;42.33;102373.08;110603;1263;22343;-66
2023/10/07 01:42:49;;;;;;;5.00;2.30;;;;;;;16.88;42.51;102371.02;110644;1257;22216;-63
2023/10/07 01:45:34;;;;;;;3.90;2.30;;;;;;;16.85;42.55;102367.77;110553;1257;22440;-63
2023/10/07 01:47:56;;;;;;;8.30;3.30;;;;;;;16.82;42.68;102363.45;110563;1261;22475;-62
2023/10/07 01:50:24;;;;;;;7.90;2.70;;;;;;;16.80;42.83;102361.55;110650;1251;22434;-62
2023/10/07 01:52:55;;;;;;;3.60;2.10;;;;;;;16.78;42.83;102357.59;110217;1269;22297;-64
2023/10/07 01:55:26;;;;;;;6.70;2.80;;;;;;;16.76;43.00;102354.98;110484;1257;22366;-66
2023/10/07 01:57:54;;;;;;;;;;;;;;;16.74;42.98;102358.70;110646;1261;22401;-61
2023/10/07 02:03:24;;;;;;;4.40;2.80;;;;;;;16.67;43.22;102356.23;110091;1257;22314;-65
2023/10/07 02:05:52;;;;;;;5.70;2.60;;;;;;;16.64;43.47;102354.02;109933;1273;22198;-64
2023/10/07 02:08:21;;;;;;;4.00;2.50;;;;;;;16.62;43.53;102354.94;110083;1257;22568;-64
2023/10/07 02:10:52;;;;;;;5.60;2.70;;;;;;;16.60;43.83;102356.23;110005;1272;22163;-62
2023/10/07 02:13:19;;;;;;;6.10;2.60;;;;;;;16.56;43.96;102360.16;110075;1273;22937;-66
2023/10/07 02:15:51;;;;;;;6.10;2.80;;;;;;;16.54;44.37;102358.80;110079;1271;22379;-62
2023/10/07 02:18:18;;;;;;;4.10;2.80;;;;;;;16.53;44.66;102356.89;110077;1269;22195;-60
2023/10/07 02:20:49;;;;;;;6.70;3.60;;;;;;;16.51;44.93;102355.70;110083;1270;23025;-64
2023/10/07 02:23:21;;;;;;;8.00;4.30;;;;;;;16.52;45.06;102351.84;110068;1260;22390;-64
2023/10/07 02:25:51;;;;;;;7.10;4.50;;;;;;;16.54;44.98;102350.57;110076;1257;22130;-61
2023/10/07 02:28:21;;;;;;;5.40;4.90;;;;;;;16.55;44.88;102351.43;110091;1276;22245;-66
2023/10/07 02:31:00;;;;;;;8.50;3.60;;;;;;;16.56;44.72;102351.40;110069;1267;22194;-68
2023/10/07 02:33:35;;;;;;;6.70;3.30;;;;;;;16.57;44.57;102352.27;110090;1260;22203;-65
2023/10/07 02:36:02;;;;;;;6.20;3.50;;;;;;;16.55;44.47;102346.86;109961;1263;22621;-61
2023/10/07 02:38:36;;;;;;;5.80;3.50;;;;;;;16.52;44.42;102345.34;110559;1270;22313;-61
2023/10/07 02:41:16;;;;;;;5.70;3.40;;;;;;;16.51;44.10;102347.14;110620;1254;22078;-60
2023/10/07 02:43:48;;;;;;;5.50;3.00;;;;;;;16.48;43.87;102343.65;110605;1257;22893;-68
2023/10/07 02:46:34;;;;;;;7.70;2.80;;;;;;;16.45;43.97;102341.44;110584;1254;23042;-60
2023/10/07 02:49:05;;;;;;;4.00;2.60;;;;;;;16.41;43.96;102337.13;110639;1254;22272;-65
2023/10/07 02:51:39;;;;;;;8.60;2.90;;;;;;;16.38;44.13;102336.51;110413;1254;22303;-65
2023/10/07 02:54:16;;;;;;;6.70;2.60;;;;;;;16.35;44.21;102337.27;109584;1269;1002612;-61
2023/10/07 02:56:54;;;;;;;5.50;2.80;;;;;;;16.32;44.30;102338.73;110578;1262;22465;-62
2023/10/07 02:59:28;;;;;;;5.80;2.90;;;;;;;16.29;44.29;102337.55;110639;1256;22394;-67
2023/10/07 03:04:44;;;;;;;5.10;2.70;;;;;;;16.23;44.47;102336.80;110625;1257;22740;-65
2023/10/07 03:07:16;;;;;;;5.00;2.50;;;;;;;16.20;44.57;102333.02;110543;1261;22336;-60
2023/10/07 03:09:51;;;;;;;4.80;2.80;;;;;;;16.17;44.64;102331.34;110637;1261;22359;-60
2023/10/07 03:12:27;;;;;;;3.00;2.10;;;;;;;16.14;44.85;102329.80;110658;1254;22853;-64
2023/10/07 03:15:08;;;;;;;7.20;2.90;;;;;;;16.12;45.09;102328.82;110653;1260;22978;-60
2023/10/07 03:17:39;;;;;;;5.40;2.80;;;;;;;16.10;45.26;102327.09;110340;1260;22278;-61
2023/10/07 03:28:25;;;;;;;6.70;2.70;;;;;;;16.16;45.47;102308.23;110476;1270;22154;-63
2023/10/07 03:30:52;;;;;;;8.70;2.80;;;;;;;16.17;45.46;102308.05;110631;1251;22408;-64
2023/10/07 03:33:32;;;;;;;4.70;2.30;;;;;;;16.18;45.43;102303.81;110587;1257;22128;-62
2023/10/07 03:36:09;;;;;;;2.60;2.00;;;;;;;16.18;45.26;102302.59;110641;1263;22827;-62
2023/10/07 03:38:36;;;;;;;3.70;2.60;;;;;;;16.17;45.32;102301.23;110688;1259;22211;-61
2023/10/07 03:41:09;;;;;;;4.60;2.30;;;;;;;16.15;45.29;102295.12;110620;1250;22327;-61
2023/10/07 03:43:37;;;;;;;9.60;3.10;;;;;;;16.14;45.48;102289.03;109916;1251;1002241;-68
2023/10/07 03:46:04;;;;;;;4.20;2.50;;;;;;;16.12;45.45;102287.48;110694;1254;22895;-60
2023/10/07 03:48:31;;;;;;;5.80;2.40;;;;;;;16.11;45.47;102287.67;110501;1266;22099;-60
2023/10/07 03:51:08;;;;;;;8.70;2.50;;;;;;;16.11;45.49;102284.55;109965;1260;1002412;-62
2023/10/07 03:53:44;;;;;;;3.40;2.40;;;;;;;16.11;45.51;102280.86;110717;1251;22995;-63
2023/10/07 03:56:12;;;;;;;5.30;2.20;;;;;;;16.10;45.44;102278.77;110647;1253;22374;-64
2023/10/07 03:58:42;;;;;;;6.00;2.50;;;;;;;16.11;45.29;102278.41;110637;1254;22288;-61
2023/10/07 04:01:11;;;;;;;3.30;2.30;;;;;;;16.13;45.22;102270.15;110680;1260;23201;-62
2023/10/07 04:03:39;;;;;;;4.20;2.30;;;;;;;16.14;44.73;102262.42;110687;1254;22264;-65
2023/10/07 04:06:09;;;;;;;5.40;3.10;;;;;;;16.14;44.27;102262.77;109903;1250;1002389;-63
2023/10/07 04:08:36;;;;;;;6.20;2.80;;;;;;;16.15;44.00;102261.16;110675;1254;22383;-63
2023/10/07 04:11:06;;;;;;;4.10;2.40;;;;;;;16.14;43.94;102255.41;109900;1260;1002473;-61
2023/10/07 04:13:33;;;;;;;5.20;2.50;;;;;;;16.12;43.90;102251.06;110613;1256;22278;-61
2023/10/07 04:16:02;;;;;;;5.20;2.50;;;;;;;16.10;43.72;102246.03;109876;1254;1002532;-62
2023/10/07 04:18:35;;;;;;;3.50;2.30;;;;;;;16.08;43.42;102240.11;110670;1262;22985;-61
2023/10/07 04:21:02;;;;;;;3.60;2.40;;;;;;;16.11;42.93;102233.77;110615;1251;22292;-65
2023/10/07 04:23:29;;;;;;;5.60;2.60;;;;;;;16.10;42.73;102228.34;110640;1256;22492;-64
2023/10/07 04:26:04;;;;;;;8.30;2.40;;;;;;;16.08;42.87;102226.81;110660;1254;22111;-63
2023/10/07 04:28:32;;;;;;;3.60;2.30;;;;;;;16.05;42.87;102225.65;110672;1256;22753;-62
2023/10/07 04:30:59;;;;;;;4.40;2.50;;;;;;;16.03;42.78;102222.02;110473;1256;23026;-63
2023/10/07 04:33:32;;;;;;;3.90;2.60;;;;;;;16.02;42.84;102221.88;109882;1254;1002836;-61
2023/10/07 04:36:04;;;;;;;4.10;2.40;;;;;;;16.01;43.08;102219.96;110659;1254;22883;-62
2023/10/07 04:38:39;;;;;;;6.50;2.60;;;;;;;16.00;43.18;102214.39;110684;1260;22275;-61
2023/10/07 04:46:23;;;;;;;5.00;2.50;;;;;;;15.99;43.57;102223.33;110647;1251;22769;-60
2023/10/07 04:48:57;;;;;;;4.00;2.30;;;;;;;16.00;43.63;102226.10;110663;1254;22153;-63
2023/10/07 04:52:10;;;;;;;3.60;2.00;;;;;;;16.03;43.63;102222.20;110636;1254;23033;-61
2023/10/07 04:54:12;;;;;;;4.30;2.70;;;;;;;16.05;43.79;102230.39;110420;1269;22332;-65
2023/10/07 04:56:47;;;;;;;3.40;2.20;;;;;;;16.07;43.98;102238.21;110728;1251;22131;-61
2023/10/07 04:59:17;;;;;;;5.10;2.40;;;;;;;16.10;44.09;102237.27;110653;1260;22171;-60
2023/10/07 05:01:48;;;;;;;5.80;2.10;;;;;;;16.13;44.07;102235.83;110676;1254;22315;-61
2023/10/07 05:04:15;;;;;;;4.30;2.30;;;;;;;16.17;43.90;102235.38;110653;1250;22125;-62
2023/10/07 05:06:43;;;;;;;5.50;1.90;;;;;;;16.24;43.94;102234.36;110531;1266;22147;-67
2023/10/07 05:09:10;;;;;;;5.10;2.40;;;;;;;16.29;43.96;102232.83;110708;1251;22374;-62
2023/10/07 05:11:40;;;;;;;4.00;2.50;;;;;;;16.37;43.85;102235.65;110680;1254;22122;-65
2023/10/07 05:14:08;;;;;;;4.30;2.60;;;;;;;16.43;43.90;102232.89;110572;1254;22384;-65
2023/10/07 05:16:35;;;;;;;10.60;3.10;;;;;;;16.48;43.80;102235.06;110656;1250;22995;-62
2023/10/07 05:19:02;;;;;;;4.90;2.80;;;;;;;16.53;43.94;102235.84;110445;1267;22334;-66
2023/10/07 05:21:31;;;;;;;6.10;2.60;;;;;;;16.59;43.91;102232.90;110630;1255;22454;-64
2023/10/07 05:24:02;;;;;;;4.00;2.40;;;;;;;16.64;44.22;102231.20;110628;1266;22274;-66
2023/10/07 05:26:31;;;;;;;3.60;2.10;;;;;;;16.69;44.26;102227.06;110619;1254;22409;-65
2023/10/07 05:29:01;;;;;;;5.40;2.80;;;;;;;16.73;44.31;102224.67;110668;1254;22122;-66
2023/10/07 05:31:33;;;;;;;3.50;2.20;;;;;;;16.79;44.44;102214.38;110673;1254;22341;-62
2023/10/07 05:34:00;;;;;;;3.90;2.30;;;;;;;16.84;44.57;102213.02;110244;1269;22154;-62
2023/10/07 05:36:32;;;;;;;3.10;2.00;;;;;;;16.91;44.60;102217.23;110648;1257;22617;-64
2023/10/07 05:39:00;;;;;;;4.10;1.80;;;;;;;16.98;44.57;102216.70;110632;1251;22288;-62
2023/10/07 05:41:28;;;;;;;3.40;2.00;;;;;;;17.06;44.55;102215.97;110634;1251;22211;-66
2023/10/07 05:43:55;;;;;;;2.90;2.00;;;;;;;17.15;44.45;102215.20;110698;1260;22810;-64
2023/10/07 05:46:22;;;;;;;4.80;2.60;;;;;;;17.26;44.36;102216.31;110659;1251;23163;-68
2023/10/07 05:48:51;;;;;;;5.90;2.10;;;;;;;17.37;44.33;102215.50;110621;1254;22348;-68
2023/10/07 05:51:18;;;;;;;3.40;1.60;;;;;;;17.47;44.12;102215.94;110617;1250;22283;-67
2023/10/07 05:53:48;;;;;;;2.90;1.90;;;;;;;17.58;43.95;102216.17;110657;1263;22295;-61
2023/10/07 05:56:15;;;;;;;3.30;1.60;;;;;;;17.68;44.00;102222.38;110673;1263;22096;-63
2023/10/07 05:58:44;;;;;;;6.00;2.20;;;;;;;17.79;43.75;102222.80;110601;1256;22390;-64
2023/10/07 06:01:11;;;;;;;2.20;1.70;;;;;;;17.89;43.61;102226.00;109991;1251;1002183;-67
2023/10/07 06:03:38;;;;;;;4.40;1.90;;;;;;;18.01;43.61;102228.47;110672;1254;22140;-63
2023/10/07 06:06:06;;;;;;;3.40;1.60;;;;;;;18.14;43.48;102228.96;110654;1254;22158;-63
2023/10/07 06:08:33;;;;;;;2.20;1.50;;;;;;;18.29;42.84;102226.39;110672;1260;22155;-64
2023/10/07 06:11:00;;;;;;;3.40;1.80;;;;;;;18.45;42.21;102224.86;110422;1256;22141;-66
2023/10/07 06:13:28;;;;;;;2.30;1.60;;;;;;;18.60;41.80;102222.98;110766;1263;22527;-65
2023/10/07 06:15:57;;;;;;;2.70;1.60;;;;;;;18.75;40.97;102217.94;110685;1253;22264;-67
2023/10/07 06:18:25;;;;;;;3.00;1.70;;;;;;;18.89;40.63;102212.37;110705;1250;22349;-62
2023/10/07 06:20:52;;;;;;;2.70;1.40;;;;;;;19.03;40.23;102208.71;110656;1254;22366;-62
2023/10/07 06:23:20;;;;;;;2.90;1.70;;;;;;;19.16;39.69;102199.48;110425;1262;22360;-61
2023/10/07 06:25:51;;;;;;;2.90;1.60;;;;;;;19.28;39.10;102202.92;110669;1254;22477;-67
2023/10/07 06:31:12;;;;;;;3.00;1.40;;;;;;;19.52;38.32;102200.54;110662;1260;22125;-61
2023/10/07 06:33:42;;;;;;;2.80;1.60;;;;;;;19.63;38.05;102198.04;110600;1263;22298;-62
2023/10/07 06:36:12;;;;;;;2.00;1.50;;;;;;;19.71;37.88;102200.02;110631;1250;22209;-63
2023/10/07 06:38:52;;;;;;;3.20;1.50;;;;;;;19.81;37.52;102201.41;110653;1263;22264;-64
2023/10/07 06:41:19;;;;;;;1.90;1.30;;;;;;;19.92;37.32;102204.67;110626;1250;22334;-63
2023/10/07 06:43:54;;;;;;;4.00;1.80;;;;;;;20.04;37.08;102205.09;110629;1253;22277;-65
2023/10/07 06:46:22;;;;;;;2.20;1.60;;;;;;;20.18;36.66;102201.92;110679;1255;22547;-66
2023/10/07 06:48:49;;;;;;;3.30;1.60;;;;;;;20.31;36.61;102202.84;110593;1256;22323;-68
2023/10/07 06:51:16;;;;;;;3.00;1.60;;;;;;;20.42;36.81;102199.59;110632;1250;22215;-63
2023/10/07 06:53:43;;;;;;;1.90;1.50;;;;;;;20.53;36.96;102196.85;110703;1250;22100;-62
2023/10/07 06:56:20;;;;;;;2.40;1.70;;;;;;;20.62;37.36;102197.70;110650;1250;22096;-69
2023/10/07 06:58:54;;;;;;;2.80;1.70;;;;;;;20.70;37.53;102195.07;110584;1266;23225;-68
2023/10/07 07:04:10;;;;;;;1.90;1.30;;;;;;;20.85;37.66;102181.39;110607;1253;22412;-66
2023/10/07 07:06:42;;;;;;;3.40;1.90;;;;;;;20.92;37.66;102183.39;110607;1260;22354;-62
2023/10/07 07:12:04;;;;;;;2.50;1.80;;;;;;;21.07;37.72;102174.84;110621;1253;22132;-65
2023/10/07 07:14:31;;;;;;;3.80;2.00;;;;;;;21.13;37.52;102174.23;110635;1266;22153;-62
2023/10/07 07:17:28;;;;;;;4.20;1.80;;;;;;;21.19;37.38;102174.86;110423;1258;22393;-67
2023/10/07 07:19:44;;;;;;;3.90;1.70;;;;;;;21.25;36.87;102179.18;110674;1256;22124;-65
2023/10/07 07:22:11;;;;;;;2.80;2.00;;;;;;;21.29;36.68;102179.75;110702;1262;22371;-67
2023/10/07 07:24:41;;;;;;;2.90;2.10;;;;;;;21.33;36.50;102179.73;110654;1254;22401;-62
2023/10/07 07:27:08;;;;;;;2.90;2.00;;;;;;;21.37;36.22;102176.70;110713;1254;22293;-61
2023/10/07 07:29:35;;;;;;;5.10;1.90;;;;;;;21.44;35.81;102171.80;110690;1263;22208;-62
2023/10/07 07:32:04;;;;;;;2.00;1.40;;;;;;;21.49;35.16;102167.70;110660;1253;22387;-66
2023/10/07 07:34:36;;;;;;;3.10;1.70;;;;;;;21.54;35.03;102165.86;110632;1251;22498;-64
2023/10/07 07:37:03;;;;;;;4.40;1.80;;;;;;;21.61;35.55;102161.31;110557;1256;22475;-60
2023/10/07 07:39:30;;;;;;;3.00;1.80;;;;;;;21.67;35.64;102156.98;110691;1252;22351;-62
2023/10/07 07:42:00;;;;;;;3.50;1.90;;;;;;;21.73;35.90;102154.93;110643;1254;22441;-58
2023/10/07 07:44:34;;;;;;;2.70;1.70;;;;;;;21.81;35.87;102159.00;110630;1256;22857;-59
2023/10/07 07:54:24;;;;;;;5.30;2.20;;;;;;;21.33;37.52;102142.90;105070;1286;558775;-59
2023/10/07 07:56:54;;;;;;;7.30;2.20;;;;;;;22.06;36.60;102138.90;102825;1269;1004120;-58
2023/10/07 07:59:22;;;;;;;2.60;1.60;;;;;;;22.12;36.90;102134.38;106390;1279;25491;-58
2023/10/07 08:01:53;;;;;;;4.30;2.10;;;;;;;22.13;37.23;102127.77;106380;1267;23224;-58
2023/10/07 08:04:42;;;;;;;3.90;2.00;;;;;;;22.13;37.84;102121.94;106292;1269;22555;-58
2023/10/07 08:09:52;;;;;;;4.70;2.00;;;;;;;22.24;38.46;102108.17;106466;1264;25404;-60
2023/10/07 08:12:20;;;;;;;4.60;1.80;;;;;;;22.30;38.65;102107.00;106549;1273;24361;-60
2023/10/07 08:14:47;;;;;;;3.00;2.00;;;;;;;22.35;38.40;102106.02;106482;1271;24345;-59
2023/10/07 08:17:19;;;;;;;3.70;2.10;;;;;;;22.40;38.69;102098.31;106685;1273;25449;-59
2023/10/07 08:19:50;;;;;;;2.70;2.10;;;;;;;22.47;39.36;102094.08;106422;1270;25346;-57
2023/10/07 08:22:23;;;;;;;4.00;1.80;;;;;;;22.53;39.41;102086.00;106697;1267;22536;-58
2023/10/07 08:24:52;;;;;;;4.70;2.30;;;;;;;22.59;39.05;102079.89;106147;1282;25491;-58
2023/10/07 08:30:07;;;;;;;5.30;2.40;;;;;;;22.73;36.97;102069.31;106270;1276;22538;-58
2023/10/07 08:32:35;;;;;;;3.30;1.80;;;;;;;22.78;36.34;102064.40;106343;1267;25291;-58
2023/10/07 08:35:16;;;;;;;6.60;2.10;;;;;;;22.84;35.90;102064.29;106916;1267;25408;-58
2023/10/07 08:37:46;;;;;;;4.50;1.90;;;;;;;22.89;35.75;102057.80;106441;1264;25412;-57
2023/10/07 08:40:26;;;;;;;3.60;1.80;;;;;;;22.95;35.63;102059.80;106793;1261;25398;-59
2023/10/07 08:42:58;;;;;;;4.50;1.80;;;;;;;22.99;35.67;102056.38;106383;1278;25481;-58
2023/10/07 08:45:30;;;;;;;3.40;2.20;;;;;;;23.06;35.26;102052.66;106921;1268;25315;-59
2023/10/07 08:48:08;;;;;;;3.60;1.70;;;;;;;22.94;35.44;102053.11;106888;1254;22659;-60
2023/10/07 08:50:42;;;;;;;3.00;2.10;;;;;;;22.98;35.28;102053.80;106749;1257;24249;-59
2023/10/07 08:53:11;;;;;;;3.90;2.10;;;;;;;23.05;35.06;102051.48;106680;1258;25346;-59
2023/10/07 08:55:39;;;;;;;3.70;2.10;;;;;;;23.11;35.57;102049.55;107124;1271;25439;-58
2023/10/07 08:58:11;;;;;;;3.20;1.90;;;;;;;23.17;36.30;102044.60;106664;1260;23536;-57
2023/10/07 09:00:45;;;;;;;3.30;1.80;;;;;;;23.22;36.47;102031.59;106896;1254;25344;-57
2023/10/07 09:03:15;;;;;;;3.90;2.70;;;;;;;23.26;37.08;102027.29;107185;1254;22629;-57
2023/10/07 09:05:43;;;;;;;4.90;2.30;;;;;;;23.30;37.36;102023.23;107308;1256;22549;-56
2023/10/07 09:08:11;;;;;;;5.00;2.30;;;;;;;23.33;37.34;102015.98;107293;1258;25468;-55
2023/10/07 09:10:40;;;;;;;4.40;2.30;;;;;;;23.36;37.49;102018.11;107094;1256;25223;-55
2023/10/07 09:13:26;;;;;;;5.50;2.60;;;;;;;23.38;37.58;102015.85;107096;1251;24441;-56
2023/10/07 09:15:54;;;;;;;3.80;2.00;;;;;;;23.42;37.50;102010.00;106914;1254;25376;-56
2023/10/07 09:18:29;;;;;;;3.90;2.10;;;;;;;23.45;37.50;102005.74;107429;1254;24233;-58
2023/10/07 09:21:06;;;;;;;4.80;2.20;;;;;;;23.49;37.94;102009.07;106934;1254;24247;-58
2023/10/07 09:23:43;;;;;;;2.40;1.70;;;;;;;23.53;37.77;102004.08;107125;1270;22751;-57
2023/10/07 09:26:44;;;;;;;4.60;2.20;;;;;;;23.56;38.11;101996.96;106964;1253;24202;-56
2023/10/07 09:29:21;;;;;;;3.40;2.40;;;;;;;23.59;38.26;101990.42;107109;1270;24386;-56
2023/10/07 09:32:04;;;;;;;6.90;2.50;;;;;;;23.62;38.05;101986.55;106936;1254;25433;-56
2023/10/07 09:37:18;;;;;;;6.30;2.60;;;;;;;23.67;38.04;101980.60;107184;1253;24239;-57
2023/10/07 09:39:46;;;;;;;4.90;2.40;;;;;;;23.69;38.37;101972.67;107307;1257;25366;-58
2023/10/07 09:42:26;;;;;;;5.60;1.80;;;;;;;23.73;38.22;101965.90;107214;1252;25474;-59
2023/10/07 09:45:27;;;;;;;3.50;1.90;;;;;;;23.75;38.39;101960.09;107392;1257;25337;-56
2023/10/07 09:47:45;;;;;;;6.00;2.00;;;;;;;23.72;38.81;101950.85;107293;1256;25372;-56
2023/10/07 09:50:33;;;;;;;4.70;1.90;;;;;;;23.73;39.09;101950.42;107406;1257;25327;-56
2023/10/07 09:53:27;;;;;;;4.60;2.20;;;;;;;23.75;38.81;101947.48;107253;1256;22608;-56
2023/10/07 09:56:28;;;;;;;4.60;2.40;;;;;;;23.76;39.12;101942.98;106377;1260;1003491;-58
2023/10/07 09:59:16;;;;;;;4.80;2.10;;;;;;;23.78;38.96;101936.84;106933;1262;24206;-57
2023/10/07 10:02:27;;;;;;;5.60;2.00;;;;;;;23.81;39.45;101932.96;106803;1267;22540;-57
2023/10/07 10:05:26;;;;;;;5.90;2.30;;;;;;;23.84;39.88;101930.48;106409;1264;25556;-57
2023/10/07 10:08:27;;;;;;;4.20;2.40;;;;;;;23.88;39.88;101929.02;106808;1263;25347;-58
2023/10/07 10:10:58;;;;;;;5.60;2.60;;;;;;;23.91;39.79;101924.60;106088;1270;25412;-57
2023/10/07 10:13:51;;;;;;;3.90;2.60;;;;;;;23.93;39.77;101920.60;106413;1264;25331;-57
2023/10/07 10:16:20;;;;;;;6.70;2.60;;;;;;;23.93;39.64;101913.98;106005;1279;25356;-57
2023/10/07 10:19:12;;;;;;;4.10;2.30;;;;;;;23.94;39.11;101903.67;106404;1267;25399;-58
2023/10/07 10:21:38;;;;;;;5.70;2.50;;;;;;;24.00;39.18;101902.80;105826;1275;1003838;-58
2023/10/07 10:24:12;;;;;;;9.30;2.30;;;;;;;24.23;39.26;101895.21;106509;1266;24337;-57
2023/10/07 10:26:40;;;;;;;7.20;3.40;;;;;;;24.29;39.19;101887.40;106308;1263;25324;-65
2023/10/07 10:29:15;;;;;;;7.10;2.70;;;;;;;24.14;39.42;101878.05;106378;1265;25379;-57
2023/10/07 10:31:50;;;;;;;3.90;2.80;;;;;;;24.13;39.73;101874.86;106233;1273;25576;-58
2023/10/07 10:34:20;;;;;;;5.90;2.60;;;;;;;24.18;39.73;101873.73;106626;1266;24222;-59
2023/10/07 10:36:49;;;;;;;9.90;2.70;;;;;;;24.21;39.80;101867.13;106691;1264;23482;-58
2023/10/07 10:39:18;;;;;;;5.90;2.50;;;;;;;24.23;40.00;101858.52;106794;1258;22629;-58
2023/10/07 10:42:09;;;;;;;6.40;2.80;;;;;;;24.27;39.94;101853.51;106882;1258;25404;-57
2023/10/07 10:44:39;;;;;;;7.30;2.50;;;;;;;24.45;39.73;101851.81;106930;1259;25403;-58
2023/10/07 10:47:07;;;;;;;5.90;2.70;;;;;;;24.57;39.45;101842.04;106668;1267;24382;-58
2023/10/07 10:49:35;;;;;;;5.50;2.30;;;;;;;24.63;39.59;101831.35;107249;1253;24348;-58
2023/10/07 10:52:04;;;;;;;4.80;2.60;;;;;;;24.66;39.58;101828.48;107840;1253;23331;-57
2023/10/07 10:54:32;;;;;;;4.50;2.40;;;;;;;24.67;39.92;101823.81;107170;1254;25500;-58
2023/10/07 10:57:00;;;;;;;5.30;2.30;;;;;;;24.71;40.28;101824.27;107565;1257;23318;-58
2023/10/07 10:59:43;;;;;;;5.60;2.40;;;;;;;24.71;40.63;101810.23;107029;1251;25271;-57
2023/10/07 11:02:17;;;;;;;7.00;2.80;;;;;;;24.77;40.60;101806.17;107233;1251;25328;-59
2023/10/07 11:04:45;;;;;;;4.70;2.70;;;;;;;24.79;40.66;101798.92;107151;1254;25309;-57
2023/10/07 11:07:14;;;;;;;9.50;2.80;;;;;;;24.81;40.83;101792.55;107272;1257;24399;-58
2023/10/07 11:09:47;;;;;;;5.30;2.90;;;;;;;24.83;41.27;101789.27;107202;1250;24293;-58
2023/10/07 11:12:16;;;;;;;6.10;2.80;;;;;;;24.85;41.20;101784.70;107292;1254;25392;-59
2023/10/07 11:14:47;;;;;;;5.80;2.60;;;;;;;24.86;41.20;101775.90;106891;1267;25449;-59
2023/10/07 11:17:15;;;;;;;7.90;2.90;;;;;;;24.88;41.18;101766.56;107206;1253;25337;-59
2023/10/07 11:19:44;;;;;;;10.00;3.20;;;;;;;24.89;41.41;101757.23;107385;1258;22539;-60
2023/10/07 11:22:14;;;;;;;4.60;2.70;;;;;;;24.91;41.58;101755.02;107234;1263;25337;-58
2023/10/07 11:24:41;;;;;;;8.40;3.70;;;;;;;24.91;41.16;101742.02;107187;1257;25386;-58
2023/10/07 11:27:08;;;;;;;5.50;3.20;;;;;;;24.92;40.32;101741.83;106988;1260;25340;-59
2023/10/07 11:29:36;;;;;;;10.40;3.90;;;;;;;24.93;39.55;101733.38;106918;1267;25444;-57
2023/10/07 11:32:04;;;;;;;9.00;3.40;;;;;;;24.96;39.76;101734.61;107010;1254;25230;-57
2023/10/07 11:34:36;;;;;;;6.10;3.70;;;;;;;24.99;39.79;101734.60;106226;1262;25405;-58
2023/10/07 11:37:14;;;;;;;11.00;3.50;;;;;;;25.02;39.52;101731.89;107091;1266;25353;-57
2023/10/07 11:39:45;;;;;;;6.70;3.40;;;;;;;25.05;39.26;101719.77;107220;1256;25337;-57
2023/10/07 11:42:16;;;;;;;6.00;3.10;;;;;;;25.08;39.44;101716.22;107265;1253;22523;-57
2023/10/07 11:44:46;;;;;;;9.60;3.50;;;;;;;25.12;39.16;101710.12;107353;1259;24263;-57
2023/10/07 11:47:16;;;;;;;10.20;3.50;;;;;;;25.14;39.07;101694.14;107107;1263;22556;-60
2023/10/07 11:49:46;;;;;;;12.50;3.60;;;;;;;25.16;39.13;101692.06;107255;1256;22531;-58
2023/10/07 11:52:14;;;;;;;16.30;3.40;;;;;;;25.19;39.62;101690.07;107200;1258;25580;-58
2023/10/07 11:54:43;;;;;;;10.70;3.30;;;;;;;25.21;39.63;101677.18;107123;1251;22539;-57
2023/10/07 11:57:10;;;;;;;9.20;3.60;;;;;;;25.23;39.47;101673.80;107114;1260;22535;-57
2023/10/07 11:59:41;;;;;;;6.40;3.40;;;;;;;25.25;39.52;101669.08;107140;1257;25920;-58
2023/10/07 12:02:12;;;;;;;10.00;3.80;;;;;;;25.26;39.37;101665.25;106849;1263;25607;-57
2023/10/07 12:04:40;;;;;;;9.70;3.80;;;;;;;25.28;39.29;101662.27;107491;1251;25445;-59
2023/10/07 12:07:07;;;;;;;13.40;3.40;;;;;;;25.29;39.40;101657.39;106871;1256;25328;-59
2023/10/07 12:09:37;;;;;;;8.00;3.40;;;;;;;25.31;39.78;101655.13;107186;1254;25386;-58
2023/10/07 12:12:06;;;;;;;8.00;3.30;;;;;;;25.31;39.37;101643.20;107240;1257;25328;-57
2023/10/07 12:14:33;;;;;;;13.00;3.20;;;;;;;25.33;39.42;101642.93;106621;1255;22533;-57
2023/10/07 12:17:01;;;;;;;7.60;4.00;;;;;;;25.35;39.71;101635.49;107078;1254;23569;-57
2023/10/07 12:19:30;;;;;;;8.70;3.20;;;;;;;25.37;40.19;101633.39;107213;1253;24366;-57
2023/10/07 12:21:59;;;;;;;8.50;3.80;;;;;;;25.39;40.44;101626.66;106863;1257;22556;-57
2023/10/07 12:24:29;;;;;;;6.50;3.30;;;;;;;25.41;40.41;101619.10;107396;1254;25306;-57
2023/10/07 12:26:56;;;;;;;8.70;3.10;;;;;;;25.43;40.25;101612.09;107304;1263;25338;-58
2023/10/07 12:29:26;;;;;;;5.90;3.40;;;;;;;25.44;40.26;101610.92;107169;1257;25408;-59
2023/10/07 12:31:53;;;;;;;9.40;3.20;;;;;;;25.45;40.56;101602.64;107049;1256;24185;-57